Time;durP1;ratioP1;P1;durP2;ratioP2;P2;SDS_P1;SDS_P2;PMS_P1;PMS_P2;Temp;Humidity;BMP_temperature;BMP_pressure;BME280_temperature;BME280_humidity;BME280_pressure;Samples;Min_cycle;Max_cycle;Signal;HPM_P1;HPM_P2
2024/01/10 00:01:53;;;;;;;66.40;30.13;;;-7.50;99.90;;;;;;5239800;28;20451;-48
2024/01/10 00:04:24;;;;;;;77.70;30.03;;;-7.50;99.90;;;;;;5241287;28;20190;-50
2024/01/10 00:06:55;;;;;;;76.27;31.47;;;-7.60;99.90;;;;;;5238870;28;20188;-49
2024/01/10 00:09:25;;;;;;;72.90;32.03;;;-7.50;99.90;;;;;;5235878;28;20269;-50
2024/01/10 00:11:56;;;;;;;77.80;30.97;;;-7.50;99.90;;;;;;5235420;28;20666;-49
2024/01/10 00:14:26;;;;;;;84.03;33.10;;;-7.60;99.90;;;;;;5240281;28;20210;-49
2024/01/10 00:16:57;;;;;;;78.57;32.23;;;-7.60;99.90;;;;;;5234652;28;20190;-50
2024/01/10 00:19:28;;;;;;;86.63;33.33;;;-7.60;99.90;;;;;;5231922;28;20272;-50
2024/01/10 00:21:58;;;;;;;86.53;33.90;;;-7.60;99.90;;;;;;5243761;28;20193;-51
2024/01/10 00:24:29;;;;;;;77.03;33.17;;;-7.60;99.90;;;;;;5235066;28;20180;-50
2024/01/10 00:26:59;;;;;;;69.53;29.53;;;-7.50;99.90;;;;;;5230645;28;20205;-50
2024/01/10 00:29:30;;;;;;;78.30;33.33;;;-7.60;99.90;;;;;;5238043;28;20187;-48
2024/01/10 00:32:01;;;;;;;74.03;30.80;;;-7.60;99.90;;;;;;5233641;28;20283;-49
2024/01/10 00:34:31;;;;;;;73.80;31.13;;;-7.60;99.90;;;;;;5240854;28;20300;-49
2024/01/10 00:37:02;;;;;;;86.13;32.20;;;-7.60;99.90;;;;;;5235480;28;20205;-51
2024/01/10 00:39:33;;;;;;;99.87;35.30;;;-7.60;99.90;;;;;;5238416;28;20241;-48
2024/01/10 00:42:03;;;;;;;90.77;33.53;;;-7.60;99.90;;;;;;5241217;28;20723;-49
2024/01/10 00:44:34;;;;;;;84.40;34.00;;;-7.60;99.90;;;;;;5238251;28;20206;-51
2024/01/10 00:47:05;;;;;;;78.40;35.27;;;-7.70;99.90;;;;;;5238600;28;20207;-50
2024/01/10 00:49:36;;;;;;;79.67;34.23;;;-7.70;99.90;;;;;;5237485;28;20436;-52
2024/01/10 00:52:06;;;;;;;77.03;32.37;;;-7.70;99.90;;;;;;5237675;28;20553;-50
2024/01/10 00:54:37;;;;;;;87.63;35.90;;;-7.70;99.90;;;;;;5233418;28;20207;-50
2024/01/10 00:57:07;;;;;;;100.13;35.30;;;-7.70;99.90;;;;;;5232967;28;20213;-51
2024/01/10 00:59:38;;;;;;;88.57;35.70;;;-7.70;99.90;;;;;;5238894;28;20232;-51
2024/01/10 01:02:08;;;;;;;74.13;33.20;;;-7.70;99.90;;;;;;5243263;28;20181;-50
2024/01/10 01:04:39;;;;;;;108.03;37.43;;;-7.70;99.90;;;;;;5240412;28;20187;-50
2024/01/10 01:07:10;;;;;;;90.03;34.77;;;-7.70;99.90;;;;;;5240378;28;20226;-50
2024/01/10 01:09:40;;;;;;;82.80;33.60;;;-7.70;99.90;;;;;;5239742;28;20650;-49
2024/01/10 01:12:11;;;;;;;79.50;34.33;;;-7.60;99.90;;;;;;5234770;28;20628;-53
2024/01/10 01:14:41;;;;;;;80.00;33.87;;;-7.70;99.90;;;;;;5238517;28;20210;-48
2024/01/10 01:17:12;;;;;;;95.10;34.83;;;-7.60;99.90;;;;;;5237615;28;20743;-48
2024/01/10 01:19:43;;;;;;;90.20;35.00;;;-7.80;99.90;;;;;;5237187;28;20175;-50
2024/01/10 01:22:14;;;;;;;99.10;36.00;;;-7.60;99.90;;;;;;5241453;28;20552;-48
2024/01/10 01:24:44;;;;;;;93.07;34.77;;;-7.60;99.90;;;;;;5221526;28;20277;-49
2024/01/10 01:27:15;;;;;;;93.20;36.17;;;-7.60;99.90;;;;;;5234307;28;20563;-49
2024/01/10 01:29:46;;;;;;;80.17;34.67;;;-7.60;99.90;;;;;;5232798;28;20643;-48
2024/01/10 01:32:16;;;;;;;84.77;33.90;;;-7.50;99.90;;;;;;5237038;28;20180;-49
2024/01/10 01:34:47;;;;;;;83.10;33.90;;;-7.50;99.90;;;;;;5230219;28;20191;-50
2024/01/10 01:37:17;;;;;;;81.23;32.77;;;-7.50;99.90;;;;;;5236805;28;20202;-50
2024/01/10 01:39:48;;;;;;;90.00;32.93;;;-7.50;99.90;;;;;;5240782;28;20190;-50
2024/01/10 01:42:18;;;;;;;80.77;33.03;;;-7.50;99.90;;;;;;5234460;28;20631;-50
2024/01/10 01:44:49;;;;;;;79.17;33.23;;;-7.50;99.90;;;;;;5239396;28;20221;-50
2024/01/10 01:47:21;;;;;;;89.67;32.80;;;-7.50;99.90;;;;;;5230566;28;20203;-49
2024/01/10 01:49:51;;;;;;;85.97;34.63;;;-7.50;99.90;;;;;;5226608;28;20182;-49
2024/01/10 01:52:22;;;;;;;77.63;33.30;;;-7.50;99.90;;;;;;5236653;28;20428;-49
2024/01/10 01:54:53;;;;;;;75.73;31.63;;;-7.50;99.90;;;;;;5237288;28;20183;-51
2024/01/10 01:57:24;;;;;;;68.23;30.40;;;-7.50;99.90;;;;;;5206550;28;20237;-50
2024/01/10 01:59:54;;;;;;;67.53;28.30;;;-7.50;99.90;;;;;;5237083;28;20179;-49
2024/01/10 02:02:25;;;;;;;78.67;31.23;;;-7.50;99.90;;;;;;5236798;28;20174;-50
2024/01/10 02:04:56;;;;;;;76.30;31.87;;;-7.50;99.90;;;;;;5234535;28;20178;-49
2024/01/10 02:07:27;;;;;;;72.23;29.53;;;-7.50;99.90;;;;;;5237482;28;20456;-50
2024/01/10 02:09:57;;;;;;;76.83;31.57;;;-7.40;99.90;;;;;;5237464;28;20676;-51
2024/01/10 02:12:28;;;;;;;68.13;28.50;;;-7.40;99.90;;;;;;5236637;28;20193;-49
2024/01/10 02:14:59;;;;;;;71.57;30.07;;;-7.40;99.90;;;;;;5239820;28;20182;-50
2024/01/10 02:17:30;;;;;;;68.07;28.83;;;-7.50;99.90;;;;;;5238551;28;20206;-50
2024/01/10 02:20:16;;;;;;;72.43;30.23;;;-7.40;99.90;;;;;;5242455;28;20440;-51
2024/01/10 02:22:47;;;;;;;72.57;31.27;;;-7.50;99.90;;;;;;5239344;28;20178;-51
2024/01/10 02:25:18;;;;;;;77.17;32.70;;;-7.50;99.90;;;;;;5241080;28;20431;-50
2024/01/10 02:27:48;;;;;;;77.67;29.87;;;-7.50;99.90;;;;;;5237083;28;20194;-47
2024/01/10 02:30:19;;;;;;;81.57;32.60;;;-7.50;99.90;;;;;;5234795;28;20458;-48
2024/01/10 02:32:50;;;;;;;78.90;32.77;;;-7.50;99.90;;;;;;5236337;28;20290;-51
2024/01/10 02:35:20;;;;;;;76.67;32.53;;;-7.50;99.90;;;;;;5237555;28;20525;-48
2024/01/10 02:37:51;;;;;;;83.03;32.83;;;-7.60;99.90;;;;;;5238413;28;20206;-49
2024/01/10 02:40:22;;;;;;;88.27;30.57;;;-7.60;99.90;;;;;;5244931;28;20182;-49
2024/01/10 02:42:52;;;;;;;81.90;32.13;;;-7.60;99.90;;;;;;5242302;28;20190;-48
2024/01/10 02:45:23;;;;;;;97.57;34.00;;;-7.60;99.90;;;;;;5241429;28;20187;-49
2024/01/10 02:47:53;;;;;;;72.70;31.93;;;-7.60;99.90;;;;;;5243834;28;20601;-48
2024/01/10 02:50:24;;;;;;;103.27;35.33;;;-7.70;99.90;;;;;;5241995;28;20185;-50
2024/01/10 02:52:55;;;;;;;89.90;35.13;;;-7.70;99.90;;;;;;5246243;28;20213;-49
2024/01/10 02:55:25;;;;;;;85.03;33.40;;;-7.70;99.90;;;;;;5238428;28;20665;-51
2024/01/10 02:57:56;;;;;;;83.37;34.60;;;-7.70;99.90;;;;;;5247873;28;20197;-48
2024/01/10 03:00:27;;;;;;;78.73;32.80;;;-7.70;99.90;;;;;;5241661;28;20185;-50
2024/01/10 03:02:57;;;;;;;84.07;34.40;;;-7.80;99.90;;;;;;5237963;28;20194;-49
2024/01/10 03:05:28;;;;;;;86.53;35.60;;;-7.90;99.90;;;;;;5242863;28;20270;-49
2024/01/10 03:07:59;;;;;;;74.13;31.97;;;-7.90;99.90;;;;;;5240325;28;20691;-49
2024/01/10 03:10:29;;;;;;;93.67;35.43;;;-7.90;99.90;;;;;;5242953;28;20432;-50
2024/01/10 03:13:00;;;;;;;88.90;36.50;;;-8.00;99.90;;;;;;5247057;28;20197;-49
2024/01/10 03:15:31;;;;;;;85.73;32.47;;;-8.00;99.90;;;;;;5241866;28;20403;-48
2024/01/10 03:18:01;;;;;;;90.80;33.90;;;-8.10;99.90;;;;;;5240791;28;20711;-49
2024/01/10 03:20:32;;;;;;;78.93;34.00;;;-8.10;99.90;;;;;;5239258;28;20181;-49
2024/01/10 03:23:02;;;;;;;80.60;34.30;;;-8.10;99.90;;;;;;5240184;28;20213;-48
2024/01/10 03:25:33;;;;;;;92.40;35.83;;;-8.10;99.90;;;;;;5243200;28;20541;-52
2024/01/10 03:28:04;;;;;;;96.23;36.40;;;-8.10;99.90;;;;;;5238301;28;20216;-48
2024/01/10 03:30:35;;;;;;;89.27;33.23;;;-8.10;99.90;;;;;;5240238;28;20545;-47
2024/01/10 03:33:05;;;;;;;85.40;34.63;;;-8.10;99.90;;;;;;5242671;28;20459;-48
2024/01/10 03:35:36;;;;;;;86.10;35.80;;;-8.10;99.90;;;;;;5235746;28;20185;-49
2024/01/10 03:38:07;;;;;;;89.17;35.70;;;-8.10;99.90;;;;;;5242566;28;20213;-48
2024/01/10 03:40:37;;;;;;;90.13;36.47;;;-8.10;99.90;;;;;;5238389;28;20692;-50
2024/01/10 03:43:10;;;;;;;84.10;34.13;;;-8.10;99.90;;;;;;5235002;28;20753;-49
2024/01/10 03:45:40;;;;;;;81.03;34.53;;;-8.10;99.90;;;;;;5237664;28;20262;-48
2024/01/10 03:48:11;;;;;;;90.87;35.40;;;-8.10;99.90;;;;;;5240849;28;20520;-48
2024/01/10 03:50:41;;;;;;;83.73;35.60;;;-8.10;99.90;;;;;;5236495;28;20593;-48
2024/01/10 03:53:12;;;;;;;86.60;36.37;;;-8.10;99.90;;;;;;5241260;28;20665;-48
2024/01/10 03:55:43;;;;;;;86.93;35.80;;;-8.10;99.90;;;;;;5242725;28;20176;-48
2024/01/10 03:58:13;;;;;;;93.87;35.03;;;-8.10;99.90;;;;;;5243086;28;21133;-49
2024/01/10 04:00:44;;;;;;;88.97;36.60;;;-8.10;99.90;;;;;;5237824;28;20191;-49
2024/01/10 04:03:14;;;;;;;97.57;36.23;;;-8.10;99.90;;;;;;5234481;28;20252;-49
2024/01/10 04:05:45;;;;;;;93.10;38.97;;;-8.10;99.90;;;;;;5242225;28;20191;-48
2024/01/10 04:08:16;;;;;;;91.73;38.53;;;-8.10;99.90;;;;;;5235277;28;20209;-48
2024/01/10 04:10:46;;;;;;;89.03;35.03;;;-8.10;99.90;;;;;;5237737;28;20181;-49
2024/01/10 04:13:17;;;;;;;92.73;36.30;;;-8.10;99.90;;;;;;5246587;28;20190;-48
2024/01/10 04:15:48;;;;;;;91.47;34.40;;;-8.00;99.90;;;;;;5231967;28;20181;-49
2024/01/10 04:18:19;;;;;;;95.73;36.47;;;-8.00;99.90;;;;;;5242587;28;20202;-49
2024/01/10 04:20:50;;;;;;;83.20;35.33;;;-8.00;99.90;;;;;;5234402;28;20780;-49
2024/01/10 04:23:20;;;;;;;90.10;33.77;;;-8.00;99.90;;;;;;5241114;28;20217;-48
2024/01/10 04:25:51;;;;;;;99.07;36.70;;;-8.00;99.90;;;;;;5232012;28;20830;-48
2024/01/10 04:28:22;;;;;;;98.67;34.80;;;-8.00;99.90;;;;;;5247201;28;20206;-49
2024/01/10 04:30:52;;;;;;;83.07;35.30;;;-7.90;99.90;;;;;;5243377;28;20193;-48
2024/01/10 04:33:23;;;;;;;83.63;35.67;;;-7.90;99.90;;;;;;5243634;28;20204;-48
2024/01/10 04:35:53;;;;;;;91.57;36.43;;;-7.90;99.90;;;;;;5235952;28;20185;-47
2024/01/10 04:38:26;;;;;;;80.97;34.03;;;-8.00;99.90;;;;;;5239900;28;20205;-51
2024/01/10 04:40:57;;;;;;;95.63;37.40;;;-8.00;99.90;;;;;;5231312;28;20229;-48
2024/01/10 04:43:27;;;;;;;81.60;34.47;;;-8.00;99.90;;;;;;5246726;28;20800;-48
2024/01/10 04:45:58;;;;;;;86.33;33.97;;;-8.00;99.90;;;;;;5245637;28;20198;-49
2024/01/10 04:48:28;;;;;;;92.57;34.73;;;-8.00;99.90;;;;;;5240501;28;20305;-50
2024/01/10 04:50:59;;;;;;;82.17;33.53;;;-8.00;99.90;;;;;;5241067;28;20212;-50
2024/01/10 04:53:30;;;;;;;81.87;35.10;;;-8.00;99.90;;;;;;5236136;28;20217;-49
2024/01/10 04:56:01;;;;;;;99.27;36.27;;;-8.00;99.90;;;;;;5235191;28;20182;-52
2024/01/10 04:58:32;;;;;;;83.40;36.30;;;-8.00;99.90;;;;;;5233917;28;20201;-53
2024/01/10 05:01:03;;;;;;;104.33;36.40;;;-8.00;99.90;;;;;;5241955;28;20712;-53
2024/01/10 05:03:34;;;;;;;88.27;33.37;;;-8.00;99.90;;;;;;5238916;28;20456;-52
2024/01/10 05:06:05;;;;;;;90.23;35.20;;;-8.00;99.90;;;;;;5243500;28;20190;-50
2024/01/10 05:08:35;;;;;;;93.57;35.87;;;-8.00;99.90;;;;;;5238164;28;20614;-51
2024/01/10 05:11:06;;;;;;;83.57;34.90;;;-8.00;99.90;;;;;;5221378;28;20527;-52
2024/01/10 05:13:37;;;;;;;92.37;34.10;;;-8.00;99.90;;;;;;5241468;28;20675;-51
2024/01/10 05:16:07;;;;;;;100.57;35.83;;;-8.00;99.90;;;;;;5236480;28;20178;-53
2024/01/10 05:18:38;;;;;;;81.63;35.70;;;-8.00;99.90;;;;;;5236325;28;20236;-52
2024/01/10 05:21:09;;;;;;;103.77;37.67;;;-8.00;99.90;;;;;;5242832;28;20180;-49
2024/01/10 05:23:40;;;;;;;84.80;35.60;;;-8.00;99.90;;;;;;5239089;28;20203;-50
2024/01/10 05:26:11;;;;;;;87.57;35.40;;;-8.00;99.90;;;;;;5231060;28;20665;-49
2024/01/10 05:28:41;;;;;;;93.30;35.57;;;-8.10;99.90;;;;;;5232338;28;20476;-51
2024/01/10 05:31:12;;;;;;;85.97;35.23;;;-8.10;99.90;;;;;;5239236;28;20186;-51
2024/01/10 05:33:42;;;;;;;95.10;35.83;;;-8.10;99.90;;;;;;5239491;28;20208;-50
2024/01/10 05:36:13;;;;;;;98.80;36.97;;;-8.10;99.90;;;;;;5235055;28;20230;-51
2024/01/10 05:38:44;;;;;;;86.37;34.93;;;-8.10;99.90;;;;;;5234632;28;20708;-49
2024/01/10 05:41:14;;;;;;;92.03;35.30;;;-8.10;99.90;;;;;;5239506;28;20241;-50
2024/01/10 05:43:45;;;;;;;90.40;34.80;;;-8.00;99.90;;;;;;5234024;28;20518;-51
2024/01/10 05:46:16;;;;;;;85.90;32.63;;;-8.00;99.90;;;;;;5237547;28;20179;-49
2024/01/10 05:48:47;;;;;;;92.37;33.13;;;-8.00;99.90;;;;;;5217156;28;20194;-49
2024/01/10 05:51:18;;;;;;;80.13;35.00;;;-8.00;99.90;;;;;;5237778;28;20439;-49
2024/01/10 05:53:49;;;;;;;85.37;34.57;;;-8.00;99.90;;;;;;5236883;28;20471;-49
2024/01/10 05:56:19;;;;;;;87.03;33.80;;;-8.00;99.90;;;;;;5234014;28;20194;-50
2024/01/10 05:58:50;;;;;;;91.43;34.70;;;-7.90;99.90;;;;;;5241604;28;20557;-50
2024/01/10 06:01:21;;;;;;;99.07;39.33;;;-8.00;99.90;;;;;;5240180;28;20188;-50
2024/01/10 06:03:51;;;;;;;102.57;37.77;;;-8.00;99.90;;;;;;5238072;28;20186;-51
2024/01/10 06:06:22;;;;;;;83.57;34.80;;;-8.00;99.90;;;;;;5235991;28;20201;-50
2024/01/10 06:08:52;;;;;;;79.47;32.87;;;-8.10;99.90;;;;;;5241085;28;20292;-50
2024/01/10 06:11:23;;;;;;;83.37;33.70;;;-8.00;99.90;;;;;;5246191;28;20453;-49
2024/01/10 06:13:53;;;;;;;88.57;33.50;;;-8.00;99.90;;;;;;5235683;28;20530;-50
2024/01/10 06:16:24;;;;;;;86.00;33.90;;;-8.00;99.90;;;;;;5239790;28;20209;-51
2024/01/10 06:18:55;;;;;;;84.30;32.93;;;-7.90;99.90;;;;;;5235487;28;20321;-51
2024/01/10 06:21:26;;;;;;;83.97;34.57;;;-7.90;99.90;;;;;;5239881;28;20722;-53
2024/01/10 06:23:57;;;;;;;92.20;33.47;;;-7.90;99.90;;;;;;5241000;28;20244;-52
2024/01/10 06:26:28;;;;;;;80.87;31.17;;;-7.80;99.90;;;;;;5237138;28;20889;-51
2024/01/10 06:28:59;;;;;;;94.53;35.83;;;-7.80;99.90;;;;;;5235973;28;20207;-48
2024/01/10 06:31:29;;;;;;;92.43;34.37;;;-7.80;99.90;;;;;;5242818;28;20213;-49
2024/01/10 06:34:00;;;;;;;73.77;33.70;;;-7.80;99.90;;;;;;5242858;28;20206;-49
2024/01/10 06:36:30;;;;;;;79.03;33.87;;;-7.80;99.90;;;;;;5233865;28;20179;-49
2024/01/10 06:39:01;;;;;;;79.93;32.17;;;-7.70;99.90;;;;;;5231036;28;20638;-49
2024/01/10 06:41:32;;;;;;;74.63;29.87;;;-7.70;99.90;;;;;;5240545;28;20277;-51
2024/01/10 06:44:04;;;;;;;98.40;34.87;;;-7.80;99.90;;;;;;5235690;28;20191;-50
2024/01/10 06:46:34;;;;;;;78.60;31.93;;;-7.70;99.90;;;;;;5229215;28;20319;-50
2024/01/10 06:49:07;;;;;;;83.73;33.87;;;-7.80;99.90;;;;;;5241980;28;20876;-49
2024/01/10 06:51:37;;;;;;;80.90;33.17;;;-7.70;99.90;;;;;;5244194;28;20179;-50
2024/01/10 06:54:08;;;;;;;77.10;31.67;;;-7.70;99.90;;;;;;5242752;28;20508;-51
2024/01/10 06:56:39;;;;;;;84.43;32.53;;;-7.70;99.90;;;;;;5244468;28;20292;-49
2024/01/10 06:59:10;;;;;;;105.27;34.00;;;-7.70;99.90;;;;;;5240104;28;20222;-50
2024/01/10 07:01:40;;;;;;;84.67;33.77;;;-7.70;99.90;;;;;;5244248;28;20632;-47
2024/01/10 07:04:11;;;;;;;75.23;33.47;;;-7.70;99.90;;;;;;5248002;28;20183;-49
2024/01/10 07:06:41;;;;;;;89.37;34.53;;;-7.70;99.90;;;;;;5242595;28;20218;-49
2024/01/10 07:09:12;;;;;;;94.63;34.10;;;-7.60;99.90;;;;;;5244914;28;20205;-49
2024/01/10 07:11:42;;;;;;;89.10;33.57;;;-7.70;99.90;;;;;;5239803;28;20179;-49
2024/01/10 07:14:14;;;;;;;81.27;33.80;;;-7.60;99.90;;;;;;5242281;28;20674;-48
2024/01/10 07:16:45;;;;;;;86.57;32.57;;;-7.60;99.90;;;;;;5236876;28;20291;-48
2024/01/10 07:19:16;;;;;;;83.83;33.70;;;-7.60;99.90;;;;;;5242116;28;20464;-49
2024/01/10 07:21:47;;;;;;;86.63;33.47;;;-7.60;99.90;;;;;;5242713;28;20866;-50
2024/01/10 07:24:17;;;;;;;96.50;34.63;;;-7.60;99.90;;;;;;5239297;28;20186;-50
2024/01/10 07:26:48;;;;;;;83.87;32.30;;;-7.60;99.90;;;;;;5238375;28;20677;-53
2024/01/10 07:29:19;;;;;;;85.97;33.47;;;-7.60;99.90;;;;;;5235817;28;20685;-53
2024/01/10 07:31:52;;;;;;;84.33;34.60;;;-7.60;99.90;;;;;;5264699;28;20440;-51
2024/01/10 07:34:23;;;;;;;90.53;33.20;;;-7.50;99.90;;;;;;5245809;28;20217;-52
2024/01/10 07:36:54;;;;;;;86.90;32.47;;;-7.50;99.90;;;;;;5238155;28;20428;-54
2024/01/10 07:39:24;;;;;;;76.77;33.00;;;-7.40;99.90;;;;;;5238127;28;20714;-52
2024/01/10 07:41:55;;;;;;;81.77;32.67;;;-7.40;99.90;;;;;;5235902;28;20428;-51
2024/01/10 07:44:26;;;;;;;81.40;32.37;;;-7.40;99.90;;;;;;5236504;28;20174;-51
2024/01/10 07:46:56;;;;;;;95.07;33.83;;;-7.30;99.90;;;;;;5239496;28;20244;-53
2024/01/10 07:49:29;;;;;;;90.67;34.57;;;-7.30;99.90;;;;;;5242201;28;20508;-49
2024/01/10 07:52:00;;;;;;;83.77;34.57;;;-7.20;99.90;;;;;;5238499;28;20175;-50
2024/01/10 07:54:31;;;;;;;75.87;31.87;;;-7.20;99.90;;;;;;5240003;28;20456;-50
2024/01/10 07:57:02;;;;;;;82.87;34.23;;;-7.20;99.90;;;;;;5244272;28;20293;-51
2024/01/10 07:59:33;;;;;;;91.87;35.13;;;-7.10;99.90;;;;;;5248176;28;20546;-49
2024/01/10 08:02:03;;;;;;;81.90;33.00;;;-7.00;99.90;;;;;;5241802;28;20186;-50
2024/01/10 08:04:34;;;;;;;93.20;34.43;;;-7.10;99.90;;;;;;5238670;28;20547;-50
2024/01/10 08:07:05;;;;;;;98.57;33.17;;;-7.00;99.90;;;;;;5240250;28;20202;-50
2024/01/10 08:09:36;;;;;;;82.93;33.70;;;-7.00;99.90;;;;;;5235187;28;20263;-52
2024/01/10 08:12:07;;;;;;;78.87;33.43;;;-6.90;99.90;;;;;;5247288;28;20539;-50
2024/01/10 08:14:38;;;;;;;83.17;33.40;;;-6.90;99.90;;;;;;5239776;28;20471;-50
2024/01/10 08:17:08;;;;;;;83.00;31.37;;;-6.80;99.90;;;;;;5237067;28;20717;-52
2024/01/10 08:19:39;;;;;;;73.23;32.43;;;-6.80;99.90;;;;;;5221708;28;20622;-50
2024/01/10 08:22:09;;;;;;;78.00;32.63;;;-6.80;99.90;;;;;;5232167;28;20268;-53
2024/01/10 08:24:40;;;;;;;88.93;31.53;;;-6.80;99.90;;;;;;5226399;28;20186;-50
2024/01/10 08:27:11;;;;;;;70.20;31.83;;;-6.70;99.90;;;;;;5226822;28;20206;-53
2024/01/10 08:29:41;;;;;;;65.73;29.43;;;-6.70;99.90;;;;;;5238364;28;20259;-53
2024/01/10 08:32:12;;;;;;;87.57;34.57;;;-6.70;99.90;;;;;;5234276;28;20302;-53
2024/01/10 08:34:44;;;;;;;93.23;31.23;;;-6.60;99.90;;;;;;5241058;28;20665;-52
2024/01/10 08:37:17;;;;;;;91.67;33.70;;;-6.60;99.90;;;;;;5243891;28;20202;-52
2024/01/10 08:39:47;;;;;;;76.80;33.30;;;-6.50;99.90;;;;;;5236076;28;20429;-55
2024/01/10 08:42:18;;;;;;;85.53;34.53;;;-6.50;99.90;;;;;;5239943;28;20503;-54
2024/01/10 08:44:49;;;;;;;95.60;33.03;;;-6.50;99.90;;;;;;5239202;28;20217;-54
2024/01/10 08:47:20;;;;;;;71.10;32.50;;;-6.40;99.90;;;;;;5240030;28;20206;-54
2024/01/10 08:49:51;;;;;;;80.53;33.27;;;-6.40;99.90;;;;;;5241609;28;20447;-55
2024/01/10 08:52:21;;;;;;;88.57;35.00;;;-6.30;99.90;;;;;;5237723;28;20529;-52
2024/01/10 08:54:52;;;;;;;81.57;34.53;;;-6.30;99.90;;;;;;5238971;28;20210;-52
2024/01/10 08:57:22;;;;;;;88.07;33.47;;;-6.30;99.90;;;;;;5241458;28;20198;-53
2024/01/10 08:59:53;;;;;;;89.43;35.90;;;-6.20;99.90;;;;;;5235835;28;20688;-52
2024/01/10 09:02:24;;;;;;;91.83;38.07;;;-6.20;99.90;;;;;;5242308;28;20630;-54
2024/01/10 09:04:55;;;;;;;93.03;36.30;;;-6.10;99.90;;;;;;5241704;28;20846;-51
2024/01/10 09:07:27;;;;;;;83.03;36.87;;;-6.10;99.90;;;;;;5239663;28;20205;-52
2024/01/10 09:09:58;;;;;;;89.20;34.60;;;-6.00;99.90;;;;;;5236715;28;20182;-53
2024/01/10 09:12:28;;;;;;;88.30;34.80;;;-6.00;99.90;;;;;;5234724;28;20436;-53
2024/01/10 09:14:59;;;;;;;83.40;33.10;;;-6.00;99.90;;;;;;5238992;28;20210;-54
2024/01/10 09:17:29;;;;;;;88.53;35.70;;;-6.00;99.90;;;;;;5237065;28;20225;-54
2024/01/10 09:20:02;;;;;;;81.80;34.87;;;-5.90;99.90;;;;;;5242664;28;20178;-51
2024/01/10 09:22:33;;;;;;;83.43;34.53;;;-5.90;99.90;;;;;;5239301;28;20279;-54
2024/01/10 09:25:05;;;;;;;92.87;33.80;;;-5.80;99.90;;;;;;5240455;28;20525;-53
2024/01/10 09:27:36;;;;;;;88.53;33.10;;;-5.80;99.90;;;;;;5233359;28;20228;-52
2024/01/10 09:30:10;;;;;;;86.03;33.07;;;-5.70;99.90;;;;;;5237920;28;20453;-51
2024/01/10 09:32:40;;;;;;;80.10;31.60;;;-5.70;99.90;;;;;;5234787;28;20182;-52
2024/01/10 09:35:12;;;;;;;89.20;33.67;;;-5.70;99.90;;;;;;5238203;28;20792;-53
2024/01/10 09:37:42;;;;;;;89.90;32.63;;;-5.60;99.90;;;;;;5230696;28;20205;-52
2024/01/10 09:40:16;;;;;;;74.77;31.50;;;-5.60;99.90;;;;;;5240593;28;20849;-52
2024/01/10 09:42:56;;;;;;;88.23;33.30;;;-5.60;99.90;;;;;;5235193;28;20177;-51
2024/01/10 09:45:31;;;;;;;72.60;32.70;;;-5.50;99.90;;;;;;5234162;28;20920;-51
2024/01/10 09:48:02;;;;;;;83.07;35.30;;;-5.40;99.90;;;;;;5236450;28;20991;-51
2024/01/10 09:50:33;;;;;;;96.83;35.60;;;-5.30;99.90;;;;;;5215733;28;20429;-51
2024/01/10 09:53:07;;;;;;;88.67;33.60;;;-5.30;99.90;;;;;;5239886;28;20460;-52
2024/01/10 09:55:39;;;;;;;103.77;35.53;;;-5.20;99.90;;;;;;5237417;28;20205;-51
2024/01/10 09:58:10;;;;;;;90.40;33.90;;;-5.20;99.90;;;;;;5234860;28;20502;-52
2024/01/10 10:00:41;;;;;;;89.37;33.70;;;-5.10;99.90;;;;;;5238946;28;20583;-52
2024/01/10 10:03:13;;;;;;;76.93;34.43;;;-5.10;99.90;;;;;;5236607;28;20441;-51
2024/01/10 10:05:44;;;;;;;79.50;33.33;;;-5.00;99.90;;;;;;5228581;28;20242;-50
2024/01/10 10:08:15;;;;;;;76.90;31.60;;;-5.00;99.90;;;;;;5235751;28;20809;-53
2024/01/10 10:10:48;;;;;;;78.43;33.00;;;-5.00;99.90;;;;;;5233191;28;20441;-51
2024/01/10 10:13:26;;;;;;;80.43;31.27;;;-5.00;99.90;;;;;;5240293;28;20464;-52
2024/01/10 10:16:02;;;;;;;74.30;31.50;;;-5.00;99.90;;;;;;5235060;28;21000;-52
2024/01/10 10:18:32;;;;;;;81.33;30.00;;;-4.80;99.90;;;;;;5237691;28;20460;-51
2024/01/10 10:21:11;;;;;;;76.43;31.90;;;-4.80;99.90;;;;;;5232737;28;20425;-54
2024/01/10 10:23:57;;;;;;;70.63;29.13;;;-4.70;99.90;;;;;;5238778;28;20187;-51
2024/01/10 10:26:29;;;;;;;64.03;27.50;;;-4.60;99.90;;;;;;5240036;28;20801;-52
2024/01/10 10:29:00;;;;;;;73.17;28.03;;;-4.50;99.90;;;;;;5237881;28;20454;-54
2024/01/10 10:31:32;;;;;;;64.13;28.03;;;-4.40;99.80;;;;;;5237345;28;20440;-51
2024/01/10 10:34:02;;;;;;;62.67;25.57;;;-4.40;99.60;;;;;;5237704;28;20225;-53
2024/01/10 10:36:33;;;;;;;70.53;27.20;;;-4.30;98.20;;;;;;5231265;28;20441;-51
2024/01/10 10:39:04;;;;;;;66.23;26.37;;;-4.20;97.50;;;;;;5236416;28;20548;-51
2024/01/10 10:41:36;;;;;;;62.20;24.57;;;-4.10;96.60;;;;;;5238443;28;20591;-54
2024/01/10 10:44:09;;;;;;;60.57;23.70;;;-4.10;95.40;;;;;;5237435;28;20187;-52
2024/01/10 10:46:42;;;;;;;59.23;24.43;;;-4.00;93.60;;;;;;5234434;28;20445;-53
2024/01/10 10:49:13;;;;;;;59.10;21.70;;;-4.00;93.80;;;;;;5235012;28;20433;-53
2024/01/10 10:51:44;;;;;;;56.17;23.67;;;-3.80;92.70;;;;;;5234523;28;20444;-52
2024/01/10 10:54:16;;;;;;;53.13;20.83;;;-3.80;92.10;;;;;;5237476;28;20481;-52
2024/01/10 10:56:48;;;;;;;52.37;22.33;;;-3.70;92.20;;;;;;5240850;28;20170;-51
2024/01/10 10:59:20;;;;;;;52.20;22.70;;;-3.60;91.40;;;;;;5244174;28;20807;-52
2024/01/10 11:01:51;;;;;;;48.03;21.33;;;-3.60;90.80;;;;;;5239782;28;20465;-52
2024/01/10 11:04:23;;;;;;;52.80;20.87;;;-3.50;90.40;;;;;;5238217;28;20441;-53
2024/01/10 11:06:53;;;;;;;48.77;22.20;;;-3.40;90.10;;;;;;5242302;28;20938;-53
2024/01/10 11:09:25;;;;;;;52.73;21.67;;;-3.40;89.50;;;;;;5235605;28;20445;-51
2024/01/10 11:12:02;;;;;;;48.97;19.67;;;-3.30;86.80;;;;;;5242497;28;20197;-52
2024/01/10 11:14:39;;;;;;;42.80;18.93;;;-3.20;85.80;;;;;;5240367;28;20467;-49
2024/01/10 11:17:39;;;;;;;48.73;19.70;;;-3.20;83.50;;;;;;5240002;28;20470;-51
2024/01/10 11:20:22;;;;;;;51.43;20.00;;;-3.20;82.70;;;;;;5236393;28;21015;-49
2024/01/10 11:23:32;;;;;;;43.20;19.37;;;-3.20;80.40;;;;;;5238752;28;20442;-51
2024/01/10 11:26:03;;;;;;;48.90;20.90;;;-3.00;80.70;;;;;;5239282;28;20984;-50
2024/01/10 11:28:37;;;;;;;43.13;19.43;;;-3.10;79.70;;;;;;5234530;28;20449;-50
2024/01/10 11:31:08;;;;;;;50.57;19.90;;;-3.00;79.50;;;;;;5236730;28;20173;-50
2024/01/10 11:33:49;;;;;;;45.97;19.73;;;-2.90;79.40;;;;;;5238595;28;20457;-51
2024/01/10 11:36:24;;;;;;;45.33;18.77;;;-2.90;79.10;;;;;;5242036;28;20443;-52
2024/01/10 11:39:01;;;;;;;45.33;18.73;;;-2.80;78.90;;;;;;5246034;28;20861;-54
2024/01/10 11:41:36;;;;;;;46.53;19.50;;;-2.70;77.10;;;;;;5241664;28;20511;-50
2024/01/10 11:46:45;;;;;;;45.10;19.43;;;-2.60;75.90;;;;;;5241982;28;20449;-50
2024/01/10 11:49:18;;;;;;;37.93;17.23;;;-2.60;75.60;;;;;;5240005;28;20574;-50
2024/01/10 11:51:52;;;;;;;46.47;18.33;;;-2.50;75.10;;;;;;5240734;28;20437;-48
2024/01/10 11:54:45;;;;;;;49.37;18.93;;;-2.50;72.70;;;;;;5240386;28;20549;-48
2024/01/10 11:57:22;;;;;;;50.67;20.27;;;-2.40;72.50;;;;;;5242160;28;20500;-49
2024/01/10 11:59:55;;;;;;;39.93;19.00;;;-2.40;73.00;;;;;;5242634;28;20425;-49
2024/01/10 12:02:27;;;;;;;65.70;20.70;;;-2.30;72.60;;;;;;5242861;28;20454;-51
2024/01/10 12:04:58;;;;;;;53.83;20.50;;;-2.20;73.30;;;;;;5246741;28;20924;-48
2024/01/10 12:07:29;;;;;;;51.00;19.67;;;-2.20;73.00;;;;;;5243540;28;20459;-49
2024/01/10 12:10:00;;;;;;;41.20;18.40;;;-2.20;73.70;;;;;;5242595;28;20194;-50
2024/01/10 12:12:31;;;;;;;43.70;19.10;;;-2.10;74.10;;;;;;5241511;28;20218;-48
2024/01/10 12:15:03;;;;;;;39.43;17.20;;;-2.10;71.60;;;;;;5244239;28;20477;-51
2024/01/10 12:17:36;;;;;;;44.93;18.37;;;-2.00;71.10;;;;;;5237865;28;20458;-50
2024/01/10 12:20:07;;;;;;;48.13;20.47;;;-2.00;72.40;;;;;;5241299;28;20577;-48
2024/01/10 12:22:38;;;;;;;38.43;17.10;;;-2.00;74.30;;;;;;5246625;28;20428;-50
2024/01/10 12:25:09;;;;;;;58.97;22.97;;;-2.00;70.60;;;;;;5244441;28;20450;-49
2024/01/10 12:27:40;;;;;;;41.60;20.47;;;-1.90;75.00;;;;;;5240991;28;20332;-50
2024/01/10 12:30:11;;;;;;;56.67;22.93;;;-2.00;74.00;;;;;;5239055;28;20530;-49
2024/01/10 12:32:42;;;;;;;44.77;21.30;;;-2.00;75.70;;;;;;5241873;28;20182;-49
2024/01/10 12:35:13;;;;;;;43.13;21.80;;;-1.90;77.10;;;;;;5240234;28;20475;-49
2024/01/10 12:37:55;;;;;;;48.10;21.67;;;-2.00;78.10;;;;;;5240553;28;21268;-49
2024/01/10 12:40:26;;;;;;;49.60;21.87;;;-2.00;77.20;;;;;;5241859;28;20178;-49
2024/01/10 12:43:06;;;;;;;42.47;20.70;;;-2.00;77.70;;;;;;5237687;28;20778;-50
2024/01/10 12:45:36;;;;;;;60.17;21.17;;;-1.90;77.90;;;;;;5237812;28;20519;-50
2024/01/10 12:48:14;;;;;;;50.70;21.87;;;-1.90;77.60;;;;;;5239001;28;20484;-53
2024/01/10 12:50:44;;;;;;;51.37;20.60;;;-1.90;76.90;;;;;;5239737;28;20183;-49